sensor_id;sensor_type;location;lat;lon;timestamp;P1;durP1;ratioP1;P2;durP2;ratioP2
43560;SDS011;32305;46.410;17.394;2023-04-15T00:01:10;1.33;;;1.17;;
43560;SDS011;32305;46.410;17.394;2023-04-15T00:03:37;1.10;;;1.00;;
43560;SDS011;32305;46.410;17.394;2023-04-15T00:06:05;1.13;;;1.02;;
43560;SDS011;32305;46.410;17.394;2023-04-15T00:08:33;1.35;;;1.25;;
43560;SDS011;32305;46.410;17.394;2023-04-15T00:11:00;1.10;;;1.00;;
43560;SDS011;32305;46.410;17.394;2023-04-15T00:13:31;1.35;;;1.10;;
43560;SDS011;32305;46.410;17.394;2023-04-15T00:15:59;1.08;;;1.08;;
43560;SDS011;32305;46.410;17.394;2023-04-15T00:18:27;0.73;;;0.73;;
43560;SDS011;32305;46.410;17.394;2023-04-15T00:20:55;1.33;;;1.23;;
43560;SDS011;32305;46.410;17.394;2023-04-15T00:23:22;1.83;;;1.33;;
43560;SDS011;32305;46.410;17.394;2023-04-15T00:25:49;1.13;;;0.98;;
43560;SDS011;32305;46.410;17.394;2023-04-15T00:28:17;1.25;;;1.20;;
43560;SDS011;32305;46.410;17.394;2023-04-15T00:30:45;0.90;;;0.90;;
43560;SDS011;32305;46.410;17.394;2023-04-15T00:33:13;1.02;;;0.82;;
43560;SDS011;32305;46.410;17.394;2023-04-15T00:35:41;0.93;;;0.90;;
43560;SDS011;32305;46.410;17.394;2023-04-15T00:38:09;1.63;;;1.50;;
43560;SDS011;32305;46.410;17.394;2023-04-15T00:40:36;1.25;;;0.85;;
43560;SDS011;32305;46.410;17.394;2023-04-15T00:43:04;1.00;;;1.00;;
43560;SDS011;32305;46.410;17.394;2023-04-15T00:45:32;0.88;;;0.88;;
43560;SDS011;32305;46.410;17.394;2023-04-15T00:47:59;1.25;;;1.13;;
43560;SDS011;32305;46.410;17.394;2023-04-15T00:50:27;0.80;;;0.70;;
43560;SDS011;32305;46.410;17.394;2023-04-15T00:52:54;0.80;;;0.80;;
43560;SDS011;32305;46.410;17.394;2023-04-15T00:55:22;1.20;;;1.10;;
43560;SDS011;32305;46.410;17.394;2023-04-15T00:57:49;0.82;;;0.82;;
43560;SDS011;32305;46.410;17.394;2023-04-15T01:00:16;0.82;;;0.82;;
43560;SDS011;32305;46.410;17.394;2023-04-15T01:02:43;1.08;;;1.00;;
43560;SDS011;32305;46.410;17.394;2023-04-15T01:05:11;0.80;;;0.80;;
43560;SDS011;32305;46.410;17.394;2023-04-15T01:07:38;0.80;;;0.80;;
43560;SDS011;32305;46.410;17.394;2023-04-15T01:10:05;1.30;;;1.00;;
43560;SDS011;32305;46.410;17.394;2023-04-15T01:12:33;0.90;;;0.90;;
43560;SDS011;32305;46.410;17.394;2023-04-15T01:15:01;0.80;;;0.70;;
43560;SDS011;32305;46.410;17.394;2023-04-15T01:17:29;0.90;;;0.90;;
43560;SDS011;32305;46.410;17.394;2023-04-15T01:19:57;1.00;;;0.90;;
43560;SDS011;32305;46.410;17.394;2023-04-15T01:22:24;1.10;;;0.70;;
43560;SDS011;32305;46.410;17.394;2023-04-15T01:25:01;0.65;;;0.60;;
43560;SDS011;32305;46.410;17.394;2023-04-15T01:27:33;0.80;;;0.80;;
43560;SDS011;32305;46.410;17.394;2023-04-15T01:30:02;0.80;;;0.80;;
43560;SDS011;32305;46.410;17.394;2023-04-15T01:32:31;0.63;;;0.63;;
43560;SDS011;32305;46.410;17.394;2023-04-15T01:34:58;1.17;;;0.80;;
43560;SDS011;32305;46.410;17.394;2023-04-15T01:37:25;1.02;;;0.93;;
43560;SDS011;32305;46.410;17.394;2023-04-15T01:39:52;0.65;;;0.65;;
43560;SDS011;32305;46.410;17.394;2023-04-15T01:42:20;0.65;;;0.65;;
43560;SDS011;32305;46.410;17.394;2023-04-15T01:44:47;0.88;;;0.80;;
43560;SDS011;32305;46.410;17.394;2023-04-15T01:47:14;0.98;;;0.88;;
43560;SDS011;32305;46.410;17.394;2023-04-15T01:49:41;1.15;;;0.90;;
43560;SDS011;32305;46.410;17.394;2023-04-15T01:52:08;0.57;;;0.57;;
43560;SDS011;32305;46.410;17.394;2023-04-15T01:54:36;0.82;;;0.80;;
43560;SDS011;32305;46.410;17.394;2023-04-15T01:57:03;0.77;;;0.77;;
43560;SDS011;32305;46.410;17.394;2023-04-15T01:59:30;0.88;;;0.70;;
43560;SDS011;32305;46.410;17.394;2023-04-15T02:01:58;1.20;;;0.68;;
43560;SDS011;32305;46.410;17.394;2023-04-15T02:04:25;0.82;;;0.80;;
43560;SDS011;32305;46.410;17.394;2023-04-15T02:06:53;0.60;;;0.60;;
43560;SDS011;32305;46.410;17.394;2023-04-15T02:09:20;0.80;;;0.80;;
43560;SDS011;32305;46.410;17.394;2023-04-15T02:11:49;0.73;;;0.73;;
43560;SDS011;32305;46.410;17.394;2023-04-15T02:14:18;1.20;;;0.90;;
43560;SDS011;32305;46.410;17.394;2023-04-15T02:16:45;0.88;;;0.70;;
43560;SDS011;32305;46.410;17.394;2023-04-15T02:19:13;1.05;;;0.70;;
43560;SDS011;32305;46.410;17.394;2023-04-15T02:21:40;0.73;;;0.73;;
43560;SDS011;32305;46.410;17.394;2023-04-15T02:24:07;0.80;;;0.80;;
43560;SDS011;32305;46.410;17.394;2023-04-15T02:26:35;0.85;;;0.80;;
43560;SDS011;32305;46.410;17.394;2023-04-15T02:29:02;1.17;;;0.73;;
43560;SDS011;32305;46.410;17.394;2023-04-15T02:31:29;0.82;;;0.82;;
43560;SDS011;32305;46.410;17.394;2023-04-15T02:34:02;1.00;;;0.70;;
43560;SDS011;32305;46.410;17.394;2023-04-15T02:36:30;1.23;;;0.75;;
43560;SDS011;32305;46.410;17.394;2023-04-15T02:38:57;0.90;;;0.85;;
43560;SDS011;32305;46.410;17.394;2023-04-15T02:41:24;0.70;;;0.70;;
43560;SDS011;32305;46.410;17.394;2023-04-15T02:43:53;1.00;;;0.70;;
43560;SDS011;32305;46.410;17.394;2023-04-15T02:46:21;0.75;;;0.65;;
43560;SDS011;32305;46.410;17.394;2023-04-15T02:48:48;0.73;;;0.70;;
43560;SDS011;32305;46.410;17.394;2023-04-15T02:51:17;0.90;;;0.88;;
43560;SDS011;32305;46.410;17.394;2023-04-15T02:53:46;0.77;;;0.77;;
43560;SDS011;32305;46.410;17.394;2023-04-15T02:56:14;0.60;;;0.60;;
43560;SDS011;32305;46.410;17.394;2023-04-15T02:58:43;0.60;;;0.60;;
43560;SDS011;32305;46.410;17.394;2023-04-15T03:01:11;0.70;;;0.70;;
43560;SDS011;32305;46.410;17.394;2023-04-15T03:03:39;0.70;;;0.70;;
43560;SDS011;32305;46.410;17.394;2023-04-15T03:06:06;0.65;;;0.55;;
43560;SDS011;32305;46.410;17.394;2023-04-15T03:08:34;0.57;;;0.57;;
43560;SDS011;32305;46.410;17.394;2023-04-15T03:11:01;0.90;;;0.70;;
43560;SDS011;32305;46.410;17.394;2023-04-15T03:13:29;0.57;;;0.57;;
43560;SDS011;32305;46.410;17.394;2023-04-15T03:15:56;0.70;;;0.50;;
43560;SDS011;32305;46.410;17.394;2023-04-15T03:18:24;0.50;;;0.50;;
43560;SDS011;32305;46.410;17.394;2023-04-15T03:20:51;0.75;;;0.65;;
43560;SDS011;32305;46.410;17.394;2023-04-15T03:23:18;0.52;;;0.52;;
43560;SDS011;32305;46.410;17.394;2023-04-15T03:25:45;0.65;;;0.65;;
43560;SDS011;32305;46.410;17.394;2023-04-15T03:28:13;0.70;;;0.50;;
43560;SDS011;32305;46.410;17.394;2023-04-15T03:30:40;1.05;;;0.60;;
43560;SDS011;32305;46.410;17.394;2023-04-15T03:33:07;0.50;;;0.50;;
43560;SDS011;32305;46.410;17.394;2023-04-15T03:35:34;0.50;;;0.50;;
43560;SDS011;32305;46.410;17.394;2023-04-15T03:38:01;0.88;;;0.55;;
43560;SDS011;32305;46.410;17.394;2023-04-15T03:40:29;0.70;;;0.70;;
43560;SDS011;32305;46.410;17.394;2023-04-15T03:42:56;1.10;;;0.60;;
43560;SDS011;32305;46.410;17.394;2023-04-15T03:45:23;0.47;;;0.47;;
43560;SDS011;32305;46.410;17.394;2023-04-15T03:47:51;0.85;;;0.63;;
43560;SDS011;32305;46.410;17.394;2023-04-15T03:50:18;0.60;;;0.50;;
43560;SDS011;32305;46.410;17.394;2023-04-15T03:52:45;0.38;;;0.38;;
43560;SDS011;32305;46.410;17.394;2023-04-15T03:55:14;0.30;;;0.30;;
43560;SDS011;32305;46.410;17.394;2023-04-15T03:57:41;0.55;;;0.55;;
43560;SDS011;32305;46.410;17.394;2023-04-15T04:00:09;1.00;;;0.88;;
43560;SDS011;32305;46.410;17.394;2023-04-15T04:02:36;0.73;;;0.70;;
43560;SDS011;32305;46.410;17.394;2023-04-15T04:05:05;0.40;;;0.40;;
43560;SDS011;32305;46.410;17.394;2023-04-15T04:07:32;0.30;;;0.30;;
43560;SDS011;32305;46.410;17.394;2023-04-15T04:09:59;0.77;;;0.60;;
43560;SDS011;32305;46.410;17.394;2023-04-15T04:12:26;0.55;;;0.40;;
43560;SDS011;32305;46.410;17.394;2023-04-15T04:14:53;0.43;;;0.40;;
43560;SDS011;32305;46.410;17.394;2023-04-15T04:17:21;0.82;;;0.50;;
43560;SDS011;32305;46.410;17.394;2023-04-15T04:19:48;0.38;;;0.38;;
43560;SDS011;32305;46.410;17.394;2023-04-15T04:22:15;0.30;;;0.30;;
43560;SDS011;32305;46.410;17.394;2023-04-15T04:24:42;0.50;;;0.50;;
43560;SDS011;32305;46.410;17.394;2023-04-15T04:27:09;0.30;;;0.30;;
43560;SDS011;32305;46.410;17.394;2023-04-15T04:29:37;0.98;;;0.60;;
43560;SDS011;32305;46.410;17.394;2023-04-15T04:32:04;0.45;;;0.45;;
43560;SDS011;32305;46.410;17.394;2023-04-15T04:34:32;0.30;;;0.30;;
43560;SDS011;32305;46.410;17.394;2023-04-15T04:36:59;0.50;;;0.40;;
43560;SDS011;32305;46.410;17.394;2023-04-15T04:39:26;0.60;;;0.47;;
43560;SDS011;32305;46.410;17.394;2023-04-15T04:41:54;0.82;;;0.38;;
43560;SDS011;32305;46.410;17.394;2023-04-15T04:44:21;0.30;;;0.30;;
43560;SDS011;32305;46.410;17.394;2023-04-15T04:46:48;0.40;;;0.40;;
43560;SDS011;32305;46.410;17.394;2023-04-15T04:49:16;0.40;;;0.40;;
43560;SDS011;32305;46.410;17.394;2023-04-15T04:51:43;0.30;;;0.30;;
43560;SDS011;32305;46.410;17.394;2023-04-15T04:54:11;0.65;;;0.52;;
43560;SDS011;32305;46.410;17.394;2023-04-15T04:56:38;0.57;;;0.38;;
43560;SDS011;32305;46.410;17.394;2023-04-15T04:59:05;0.60;;;0.60;;
43560;SDS011;32305;46.410;17.394;2023-04-15T05:01:33;0.25;;;0.25;;
43560;SDS011;32305;46.410;17.394;2023-04-15T05:04:00;0.43;;;0.43;;
43560;SDS011;32305;46.410;17.394;2023-04-15T05:06:28;0.40;;;0.30;;
43560;SDS011;32305;46.410;17.394;2023-04-15T05:08:56;0.40;;;0.40;;
43560;SDS011;32305;46.410;17.394;2023-04-15T05:11:23;0.28;;;0.20;;
43560;SDS011;32305;46.410;17.394;2023-04-15T05:13:50;0.20;;;0.20;;
43560;SDS011;32305;46.410;17.394;2023-04-15T05:16:17;0.32;;;0.32;;
43560;SDS011;32305;46.410;17.394;2023-04-15T05:18:46;0.40;;;0.40;;
43560;SDS011;32305;46.410;17.394;2023-04-15T05:21:13;0.20;;;0.20;;
43560;SDS011;32305;46.410;17.394;2023-04-15T05:23:40;0.28;;;0.28;;
43560;SDS011;32305;46.410;17.394;2023-04-15T05:26:07;0.40;;;0.30;;
43560;SDS011;32305;46.410;17.394;2023-04-15T05:28:35;0.43;;;0.43;;
43560;SDS011;32305;46.410;17.394;2023-04-15T05:31:02;0.45;;;0.45;;
43560;SDS011;32305;46.410;17.394;2023-04-15T05:33:30;0.13;;;0.13;;
43560;SDS011;32305;46.410;17.394;2023-04-15T05:35:57;0.45;;;0.30;;
43560;SDS011;32305;46.410;17.394;2023-04-15T05:38:24;0.30;;;0.30;;
43560;SDS011;32305;46.410;17.394;2023-04-15T05:40:51;0.35;;;0.20;;
43560;SDS011;32305;46.410;17.394;2023-04-15T05:43:22;0.55;;;0.55;;
43560;SDS011;32305;46.410;17.394;2023-04-15T05:45:49;2.17;;;0.70;;
43560;SDS011;32305;46.410;17.394;2023-04-15T05:48:16;0.40;;;0.40;;
43560;SDS011;32305;46.410;17.394;2023-04-15T05:50:43;0.40;;;0.40;;
43560;SDS011;32305;46.410;17.394;2023-04-15T05:53:10;0.50;;;0.38;;
43560;SDS011;32305;46.410;17.394;2023-04-15T05:55:38;2.13;;;0.80;;
43560;SDS011;32305;46.410;17.394;2023-04-15T05:58:05;0.57;;;0.40;;
43560;SDS011;32305;46.410;17.394;2023-04-15T06:00:32;0.22;;;0.22;;
43560;SDS011;32305;46.410;17.394;2023-04-15T06:02:59;0.32;;;0.32;;
43560;SDS011;32305;46.410;17.394;2023-04-15T06:05:27;0.30;;;0.30;;
43560;SDS011;32305;46.410;17.394;2023-04-15T06:07:55;0.57;;;0.40;;
43560;SDS011;32305;46.410;17.394;2023-04-15T06:10:22;0.75;;;0.40;;
43560;SDS011;32305;46.410;17.394;2023-04-15T06:12:49;0.32;;;0.20;;
43560;SDS011;32305;46.410;17.394;2023-04-15T06:15:18;0.40;;;0.40;;
43560;SDS011;32305;46.410;17.394;2023-04-15T06:17:45;0.47;;;0.30;;
43560;SDS011;32305;46.410;17.394;2023-04-15T06:20:12;0.50;;;0.40;;
43560;SDS011;32305;46.410;17.394;2023-04-15T06:22:40;0.55;;;0.20;;
43560;SDS011;32305;46.410;17.394;2023-04-15T06:25:07;0.35;;;0.35;;
43560;SDS011;32305;46.410;17.394;2023-04-15T06:27:34;0.30;;;0.20;;
43560;SDS011;32305;46.410;17.394;2023-04-15T06:30:02;0.43;;;0.40;;
43560;SDS011;32305;46.410;17.394;2023-04-15T06:32:31;1.08;;;0.30;;
43560;SDS011;32305;46.410;17.394;2023-04-15T06:34:58;0.57;;;0.30;;
43560;SDS011;32305;46.410;17.394;2023-04-15T06:37:29;1.30;;;0.55;;
43560;SDS011;32305;46.410;17.394;2023-04-15T06:39:57;0.30;;;0.30;;
43560;SDS011;32305;46.410;17.394;2023-04-15T06:42:24;1.65;;;0.38;;
43560;SDS011;32305;46.410;17.394;2023-04-15T06:44:51;0.30;;;0.30;;
43560;SDS011;32305;46.410;17.394;2023-04-15T06:47:18;0.63;;;0.50;;
43560;SDS011;32305;46.410;17.394;2023-04-15T06:49:45;0.35;;;0.35;;
43560;SDS011;32305;46.410;17.394;2023-04-15T06:52:12;0.32;;;0.32;;
43560;SDS011;32305;46.410;17.394;2023-04-15T06:54:39;0.17;;;0.15;;
43560;SDS011;32305;46.410;17.394;2023-04-15T06:57:07;0.30;;;0.30;;
43560;SDS011;32305;46.410;17.394;2023-04-15T06:59:35;0.50;;;0.30;;
43560;SDS011;32305;46.410;17.394;2023-04-15T07:02:02;0.40;;;0.40;;
43560;SDS011;32305;46.410;17.394;2023-04-15T07:04:29;0.25;;;0.22;;
43560;SDS011;32305;46.410;17.394;2023-04-15T07:06:57;1.75;;;0.30;;
43560;SDS011;32305;46.410;17.394;2023-04-15T07:09:27;0.30;;;0.30;;
43560;SDS011;32305;46.410;17.394;2023-04-15T07:11:55;0.77;;;0.40;;
43560;SDS011;32305;46.410;17.394;2023-04-15T07:14:22;0.73;;;0.73;;
43560;SDS011;32305;46.410;17.394;2023-04-15T07:16:49;0.35;;;0.35;;
43560;SDS011;32305;46.410;17.394;2023-04-15T07:19:17;0.70;;;0.40;;
43560;SDS011;32305;46.410;17.394;2023-04-15T07:21:44;0.40;;;0.40;;
43560;SDS011;32305;46.410;17.394;2023-04-15T07:24:12;0.47;;;0.47;;
43560;SDS011;32305;46.410;17.394;2023-04-15T07:26:43;0.52;;;0.40;;
43560;SDS011;32305;46.410;17.394;2023-04-15T07:29:10;0.30;;;0.30;;
43560;SDS011;32305;46.410;17.394;2023-04-15T07:31:38;0.30;;;0.30;;
43560;SDS011;32305;46.410;17.394;2023-04-15T07:34:06;0.60;;;0.30;;
43560;SDS011;32305;46.410;17.394;2023-04-15T07:36:33;0.30;;;0.30;;
43560;SDS011;32305;46.410;17.394;2023-04-15T07:39:01;1.02;;;0.38;;
43560;SDS011;32305;46.410;17.394;2023-04-15T07:41:29;0.20;;;0.20;;
43560;SDS011;32305;46.410;17.394;2023-04-15T07:43:57;0.40;;;0.40;;
43560;SDS011;32305;46.410;17.394;2023-04-15T07:46:24;0.43;;;0.43;;
43560;SDS011;32305;46.410;17.394;2023-04-15T07:48:52;0.30;;;0.25;;
43560;SDS011;32305;46.410;17.394;2023-04-15T07:51:20;0.65;;;0.30;;
43560;SDS011;32305;46.410;17.394;2023-04-15T07:53:48;0.40;;;0.40;;
43560;SDS011;32305;46.410;17.394;2023-04-15T07:56:15;0.30;;;0.30;;
43560;SDS011;32305;46.410;17.394;2023-04-15T07:58:43;1.30;;;0.40;;
43560;SDS011;32305;46.410;17.394;2023-04-15T08:01:10;0.40;;;0.40;;
43560;SDS011;32305;46.410;17.394;2023-04-15T08:03:37;0.43;;;0.25;;
43560;SDS011;32305;46.410;17.394;2023-04-15T08:06:06;0.40;;;0.40;;
43560;SDS011;32305;46.410;17.394;2023-04-15T08:08:33;0.47;;;0.40;;
43560;SDS011;32305;46.410;17.394;2023-04-15T08:11:00;0.30;;;0.30;;
43560;SDS011;32305;46.410;17.394;2023-04-15T08:13:28;0.63;;;0.50;;
43560;SDS011;32305;46.410;17.394;2023-04-15T08:18:45;0.52;;;0.50;;
43560;SDS011;32305;46.410;17.394;2023-04-15T08:21:13;0.65;;;0.52;;
43560;SDS011;32305;46.410;17.394;2023-04-15T08:23:40;0.50;;;0.50;;
43560;SDS011;32305;46.410;17.394;2023-04-15T08:26:08;0.32;;;0.30;;
43560;SDS011;32305;46.410;17.394;2023-04-15T08:28:39;0.45;;;0.40;;
43560;SDS011;32305;46.410;17.394;2023-04-15T08:31:07;0.20;;;0.20;;
43560;SDS011;32305;46.410;17.394;2023-04-15T08:33:35;0.98;;;0.40;;
43560;SDS011;32305;46.410;17.394;2023-04-15T08:36:02;0.65;;;0.40;;
43560;SDS011;32305;46.410;17.394;2023-04-15T08:38:30;0.73;;;0.52;;
43560;SDS011;32305;46.410;17.394;2023-04-15T08:40:57;0.68;;;0.40;;
43560;SDS011;32305;46.410;17.394;2023-04-15T08:43:28;0.40;;;0.40;;
43560;SDS011;32305;46.410;17.394;2023-04-15T08:46:06;2.05;;;0.50;;
43560;SDS011;32305;46.410;17.394;2023-04-15T08:48:35;0.28;;;0.28;;
43560;SDS011;32305;46.410;17.394;2023-04-15T08:51:04;0.63;;;0.35;;
43560;SDS011;32305;46.410;17.394;2023-04-15T08:53:32;0.40;;;0.40;;
43560;SDS011;32305;46.410;17.394;2023-04-15T08:55:59;0.50;;;0.50;;
43560;SDS011;32305;46.410;17.394;2023-04-15T08:58:32;0.40;;;0.30;;
43560;SDS011;32305;46.410;17.394;2023-04-15T09:01:00;0.40;;;0.40;;
43560;SDS011;32305;46.410;17.394;2023-04-15T09:03:29;0.40;;;0.40;;
43560;SDS011;32305;46.410;17.394;2023-04-15T09:05:57;0.60;;;0.43;;
43560;SDS011;32305;46.410;17.394;2023-04-15T09:08:25;0.47;;;0.47;;
43560;SDS011;32305;46.410;17.394;2023-04-15T09:10:53;0.40;;;0.40;;
43560;SDS011;32305;46.410;17.394;2023-04-15T09:13:20;0.73;;;0.73;;
43560;SDS011;32305;46.410;17.394;2023-04-15T09:15:47;0.38;;;0.38;;
43560;SDS011;32305;46.410;17.394;2023-04-15T09:18:25;0.38;;;0.38;;
43560;SDS011;32305;46.410;17.394;2023-04-15T09:20:55;1.00;;;0.68;;
43560;SDS011;32305;46.410;17.394;2023-04-15T09:23:30;0.60;;;0.60;;
43560;SDS011;32305;46.410;17.394;2023-04-15T09:25:59;0.50;;;0.50;;
43560;SDS011;32305;46.410;17.394;2023-04-15T09:28:30;0.50;;;0.50;;
43560;SDS011;32305;46.410;17.394;2023-04-15T09:30:58;0.30;;;0.30;;
43560;SDS011;32305;46.410;17.394;2023-04-15T09:33:27;0.30;;;0.30;;
43560;SDS011;32305;46.410;17.394;2023-04-15T09:35:56;0.82;;;0.70;;
43560;SDS011;32305;46.410;17.394;2023-04-15T09:38:31;0.50;;;0.50;;
43560;SDS011;32305;46.410;17.394;2023-04-15T09:40:58;0.68;;;0.60;;
43560;SDS011;32305;46.410;17.394;2023-04-15T09:43:38;0.25;;;0.25;;
43560;SDS011;32305;46.410;17.394;2023-04-15T09:46:06;0.63;;;0.63;;
43560;SDS011;32305;46.410;17.394;2023-04-15T09:48:33;0.30;;;0.30;;
43560;SDS011;32305;46.410;17.394;2023-04-15T09:51:00;1.75;;;0.50;;
43560;SDS011;32305;46.410;17.394;2023-04-15T09:53:28;0.35;;;0.35;;
43560;SDS011;32305;46.410;17.394;2023-04-15T09:55:58;0.40;;;0.40;;
43560;SDS011;32305;46.410;17.394;2023-04-15T09:58:29;0.55;;;0.50;;
43560;SDS011;32305;46.410;17.394;2023-04-15T10:00:59;2.83;;;0.30;;
43560;SDS011;32305;46.410;17.394;2023-04-15T10:03:30;0.55;;;0.55;;
43560;SDS011;32305;46.410;17.394;2023-04-15T10:06:00;0.70;;;0.45;;
43560;SDS011;32305;46.410;17.394;2023-04-15T10:08:31;0.52;;;0.43;;
43560;SDS011;32305;46.410;17.394;2023-04-15T10:11:01;0.30;;;0.30;;
43560;SDS011;32305;46.410;17.394;2023-04-15T10:13:29;0.70;;;0.70;;
43560;SDS011;32305;46.410;17.394;2023-04-15T10:16:06;0.98;;;0.47;;
43560;SDS011;32305;46.410;17.394;2023-04-15T10:18:39;0.40;;;0.30;;
43560;SDS011;32305;46.410;17.394;2023-04-15T10:21:09;0.75;;;0.60;;
43560;SDS011;32305;46.410;17.394;2023-04-15T10:23:39;0.52;;;0.52;;
43560;SDS011;32305;46.410;17.394;2023-04-15T10:26:06;0.60;;;0.60;;
43560;SDS011;32305;46.410;17.394;2023-04-15T10:28:35;0.40;;;0.40;;
43560;SDS011;32305;46.410;17.394;2023-04-15T10:31:02;0.60;;;0.60;;
43560;SDS011;32305;46.410;17.394;2023-04-15T10:33:31;0.50;;;0.45;;
43560;SDS011;32305;46.410;17.394;2023-04-15T10:36:00;0.30;;;0.30;;
43560;SDS011;32305;46.410;17.394;2023-04-15T10:38:38;0.60;;;0.50;;
43560;SDS011;32305;46.410;17.394;2023-04-15T10:41:12;0.45;;;0.22;;
43560;SDS011;32305;46.410;17.394;2023-04-15T10:43:54;0.45;;;0.32;;
43560;SDS011;32305;46.410;17.394;2023-04-15T10:46:34;0.22;;;0.22;;
43560;SDS011;32305;46.410;17.394;2023-04-15T10:49:14;0.45;;;0.45;;
43560;SDS011;32305;46.410;17.394;2023-04-15T10:51:44;0.50;;;0.40;;
43560;SDS011;32305;46.410;17.394;2023-04-15T10:54:13;0.45;;;0.45;;
43560;SDS011;32305;46.410;17.394;2023-04-15T10:56:51;0.47;;;0.47;;
43560;SDS011;32305;46.410;17.394;2023-04-15T11:02:42;0.40;;;0.40;;
43560;SDS011;32305;46.410;17.394;2023-04-15T11:05:11;0.30;;;0.30;;
43560;SDS011;32305;46.410;17.394;2023-04-15T11:07:47;0.68;;;0.68;;
43560;SDS011;32305;46.410;17.394;2023-04-15T11:13:20;0.63;;;0.40;;
43560;SDS011;32305;46.410;17.394;2023-04-15T11:15:50;0.60;;;0.40;;
43560;SDS011;32305;46.410;17.394;2023-04-15T11:18:24;0.30;;;0.30;;
43560;SDS011;32305;46.410;17.394;2023-04-15T11:23:27;0.43;;;0.40;;
43560;SDS011;32305;46.410;17.394;2023-04-15T11:26:07;0.40;;;0.38;;
43560;SDS011;32305;46.410;17.394;2023-04-15T11:28:38;0.40;;;0.40;;
43560;SDS011;32305;46.410;17.394;2023-04-15T11:31:10;0.53;;;0.53;;
43560;SDS011;32305;46.410;17.394;2023-04-15T11:33:52;0.30;;;0.30;;
43560;SDS011;32305;46.410;17.394;2023-04-15T11:36:25;0.60;;;0.35;;
43560;SDS011;32305;46.410;17.394;2023-04-15T11:38:53;0.55;;;0.40;;
43560;SDS011;32305;46.410;17.394;2023-04-15T11:41:21;0.40;;;0.40;;
43560;SDS011;32305;46.410;17.394;2023-04-15T11:43:49;0.50;;;0.30;;
43560;SDS011;32305;46.410;17.394;2023-04-15T11:46:17;0.30;;;0.30;;
43560;SDS011;32305;46.410;17.394;2023-04-15T11:48:45;0.70;;;0.30;;
43560;SDS011;32305;46.410;17.394;2023-04-15T11:51:13;1.00;;;0.40;;
43560;SDS011;32305;46.410;17.394;2023-04-15T11:53:50;0.57;;;0.45;;
43560;SDS011;32305;46.410;17.394;2023-04-15T11:56:22;0.43;;;0.22;;
43560;SDS011;32305;46.410;17.394;2023-04-15T12:01:33;1.30;;;0.30;;
43560;SDS011;32305;46.410;17.394;2023-04-15T12:04:09;0.55;;;0.20;;
43560;SDS011;32305;46.410;17.394;2023-04-15T12:09:09;0.90;;;0.45;;
43560;SDS011;32305;46.410;17.394;2023-04-15T12:11:44;0.20;;;0.20;;
43560;SDS011;32305;46.410;17.394;2023-04-15T12:14:19;0.30;;;0.30;;
43560;SDS011;32305;46.410;17.394;2023-04-15T12:16:49;0.63;;;0.28;;
43560;SDS011;32305;46.410;17.394;2023-04-15T12:19:24;0.20;;;0.20;;
43560;SDS011;32305;46.410;17.394;2023-04-15T12:21:59;0.40;;;0.35;;
43560;SDS011;32305;46.410;17.394;2023-04-15T12:24:31;0.40;;;0.40;;
43560;SDS011;32305;46.410;17.394;2023-04-15T12:27:06;0.30;;;0.30;;
43560;SDS011;32305;46.410;17.394;2023-04-15T12:29:36;1.13;;;0.50;;
43560;SDS011;32305;46.410;17.394;2023-04-15T12:32:06;0.47;;;0.30;;
43560;SDS011;32305;46.410;17.394;2023-04-15T12:34:48;0.40;;;0.40;;
43560;SDS011;32305;46.410;17.394;2023-04-15T12:37:17;0.75;;;0.50;;
43560;SDS011;32305;46.410;17.394;2023-04-15T12:39:45;0.40;;;0.40;;
43560;SDS011;32305;46.410;17.394;2023-04-15T12:42:14;0.50;;;0.30;;
43560;SDS011;32305;46.410;17.394;2023-04-15T12:44:42;0.25;;;0.25;;
43560;SDS011;32305;46.410;17.394;2023-04-15T12:47:11;0.82;;;0.40;;
43560;SDS011;32305;46.410;17.394;2023-04-15T12:49:39;0.30;;;0.30;;
43560;SDS011;32305;46.410;17.394;2023-04-15T12:52:06;0.73;;;0.50;;
43560;SDS011;32305;46.410;17.394;2023-04-15T12:54:34;0.20;;;0.20;;
43560;SDS011;32305;46.410;17.394;2023-04-15T12:57:02;0.20;;;0.20;;
43560;SDS011;32305;46.410;17.394;2023-04-15T12:59:32;0.57;;;0.40;;
43560;SDS011;32305;46.410;17.394;2023-04-15T13:02:00;0.40;;;0.28;;
43560;SDS011;32305;46.410;17.394;2023-04-15T13:04:28;0.63;;;0.28;;
43560;SDS011;32305;46.410;17.394;2023-04-15T13:06:56;1.38;;;0.20;;
43560;SDS011;32305;46.410;17.394;2023-04-15T13:09:24;0.30;;;0.30;;
43560;SDS011;32305;46.410;17.394;2023-04-15T13:11:51;0.30;;;0.30;;
43560;SDS011;32305;46.410;17.394;2023-04-15T13:14:19;0.35;;;0.35;;
43560;SDS011;32305;46.410;17.394;2023-04-15T13:16:47;0.40;;;0.28;;
43560;SDS011;32305;46.410;17.394;2023-04-15T13:19:14;0.40;;;0.40;;
43560;SDS011;32305;46.410;17.394;2023-04-15T13:21:41;0.40;;;0.30;;
43560;SDS011;32305;46.410;17.394;2023-04-15T13:24:08;1.10;;;0.15;;
43560;SDS011;32305;46.410;17.394;2023-04-15T13:26:35;0.30;;;0.30;;
43560;SDS011;32305;46.410;17.394;2023-04-15T13:29:03;0.20;;;0.20;;
43560;SDS011;32305;46.410;17.394;2023-04-15T13:31:31;0.90;;;0.38;;
43560;SDS011;32305;46.410;17.394;2023-04-15T13:33:58;0.25;;;0.20;;
43560;SDS011;32305;46.410;17.394;2023-04-15T13:36:25;1.00;;;0.30;;
43560;SDS011;32305;46.410;17.394;2023-04-15T13:38:56;0.55;;;0.50;;
43560;SDS011;32305;46.410;17.394;2023-04-15T13:41:23;0.43;;;0.38;;
43560;SDS011;32305;46.410;17.394;2023-04-15T13:43:51;0.20;;;0.20;;
43560;SDS011;32305;46.410;17.394;2023-04-15T13:46:18;0.45;;;0.30;;
43560;SDS011;32305;46.410;17.394;2023-04-15T13:48:45;0.35;;;0.20;;
43560;SDS011;32305;46.410;17.394;2023-04-15T13:51:13;0.40;;;0.32;;
43560;SDS011;32305;46.410;17.394;2023-04-15T13:53:40;0.50;;;0.43;;
43560;SDS011;32305;46.410;17.394;2023-04-15T13:56:08;0.40;;;0.32;;
43560;SDS011;32305;46.410;17.394;2023-04-15T13:58:36;0.30;;;0.30;;
43560;SDS011;32305;46.410;17.394;2023-04-15T14:01:04;0.68;;;0.20;;
43560;SDS011;32305;46.410;17.394;2023-04-15T14:03:35;1.63;;;0.30;;
43560;SDS011;32305;46.410;17.394;2023-04-15T14:06:04;0.20;;;0.20;;
43560;SDS011;32305;46.410;17.394;2023-04-15T14:08:32;0.32;;;0.20;;
43560;SDS011;32305;46.410;17.394;2023-04-15T14:10:59;0.20;;;0.20;;
43560;SDS011;32305;46.410;17.394;2023-04-15T14:13:26;0.50;;;0.50;;
43560;SDS011;32305;46.410;17.394;2023-04-15T14:15:53;1.65;;;0.77;;
43560;SDS011;32305;46.410;17.394;2023-04-15T14:18:22;0.52;;;0.50;;
43560;SDS011;32305;46.410;17.394;2023-04-15T14:20:49;0.52;;;0.20;;
43560;SDS011;32305;46.410;17.394;2023-04-15T14:23:17;0.25;;;0.13;;
43560;SDS011;32305;46.410;17.394;2023-04-15T14:25:44;0.82;;;0.17;;
43560;SDS011;32305;46.410;17.394;2023-04-15T14:28:13;0.30;;;0.30;;
43560;SDS011;32305;46.410;17.394;2023-04-15T14:30:41;0.20;;;0.20;;
43560;SDS011;32305;46.410;17.394;2023-04-15T14:33:09;0.17;;;0.17;;
43560;SDS011;32305;46.410;17.394;2023-04-15T14:35:36;0.25;;;0.20;;
43560;SDS011;32305;46.410;17.394;2023-04-15T14:38:03;0.20;;;0.20;;
43560;SDS011;32305;46.410;17.394;2023-04-15T14:40:32;0.40;;;0.40;;
43560;SDS011;32305;46.410;17.394;2023-04-15T14:43:00;0.20;;;0.20;;
43560;SDS011;32305;46.410;17.394;2023-04-15T14:45:27;0.20;;;0.20;;
43560;SDS011;32305;46.410;17.394;2023-04-15T14:47:55;0.28;;;0.28;;
43560;SDS011;32305;46.410;17.394;2023-04-15T14:50:22;0.10;;;0.10;;
43560;SDS011;32305;46.410;17.394;2023-04-15T14:52:49;0.28;;;0.28;;
43560;SDS011;32305;46.410;17.394;2023-04-15T14:55:17;0.20;;;0.10;;
43560;SDS011;32305;46.410;17.394;2023-04-15T14:57:44;0.68;;;0.35;;